createdAt,value
2018-11-28T00:05:01.184Z,19.37
2018-11-28T00:11:06.374Z,23.20
2018-11-28T00:17:11.153Z,20.90
2018-11-28T00:23:16.861Z,24.30
2018-11-28T00:31:53.850Z,22.70
2018-11-28T00:37:58.608Z,23.77
2018-11-28T00:44:04.118Z,22.00
2018-11-28T00:50:13.686Z,20.70
2018-11-28T00:56:18.762Z,22.67
2018-11-28T01:02:23.494Z,21.70
2018-11-28T01:08:28.597Z,21.30
2018-11-28T01:14:33.363Z,22.13
2018-11-28T01:20:38.978Z,21.13
2018-11-28T01:26:44.098Z,20.17
2018-11-28T01:32:49.288Z,20.00
2018-11-28T01:38:54.428Z,21.23
2018-11-28T01:44:59.201Z,19.07
2018-11-28T01:51:04.171Z,19.40
2018-11-28T01:57:09.230Z,20.70
2018-11-28T02:03:13.939Z,19.70
2018-11-28T02:09:19.519Z,19.57
2018-11-28T02:15:25.897Z,19.53
2018-11-28T02:21:31.252Z,19.73
2018-11-28T02:27:36.057Z,19.73
2018-11-28T02:33:41.274Z,18.70
2018-11-28T02:39:46.052Z,18.20
2018-11-28T02:46:07.527Z,19.03
2018-11-28T02:52:12.217Z,18.47
2018-11-28T02:58:17.050Z,20.23
2018-11-28T03:04:22.147Z,20.47
2018-11-28T03:10:27.723Z,19.93
2018-11-28T03:16:32.461Z,20.73
2018-11-28T03:22:37.251Z,18.90
2018-11-28T03:28:41.992Z,20.07
2018-11-28T03:34:46.774Z,18.73
2018-11-28T03:40:51.859Z,20.20
2018-11-28T03:46:56.924Z,19.90
2018-11-28T03:53:01.927Z,21.37
2018-11-28T03:59:07.753Z,20.47
2018-11-28T04:05:13.293Z,19.57
2018-11-28T04:11:18.310Z,18.67
2018-11-28T04:17:30.050Z,21.20
2018-11-28T04:23:35.392Z,20.23
2018-11-28T04:29:40.642Z,21.13
2018-11-28T04:35:45.728Z,20.47
2018-11-28T04:41:50.779Z,19.70
2018-11-28T04:47:58.132Z,18.87
2018-11-28T04:54:03.365Z,20.80
2018-11-28T05:00:15.044Z,20.13
2018-11-28T05:07:41.011Z,20.77
2018-11-28T05:13:48.010Z,19.87
2018-11-28T05:19:54.437Z,19.97
2018-11-28T05:25:59.545Z,19.70
2018-11-28T05:32:05.683Z,19.73
2018-11-28T05:38:13.673Z,18.87
2018-11-28T05:44:20.156Z,21.13
2018-11-28T05:50:31.873Z,20.00
2018-11-28T05:56:38.484Z,19.00
2018-11-28T06:02:45.073Z,19.73
2018-11-28T06:08:50.667Z,22.70
2018-11-28T06:14:56.525Z,23.60
2018-11-28T06:21:01.916Z,23.07
2018-11-28T06:27:08.477Z,24.87
2018-11-28T06:33:13.878Z,21.33
2018-11-28T06:39:19.932Z,23.50
2018-11-28T06:45:26.208Z,23.27
2018-11-28T06:51:31.361Z,20.90
2018-11-28T06:57:37.354Z,23.67
2018-11-28T07:03:47.797Z,21.37
2018-11-28T07:12:24.523Z,22.00
2018-11-28T07:18:45.975Z,23.80
2018-11-28T07:24:51.166Z,23.40
2018-11-28T07:30:56.141Z,22.03
2018-11-28T07:37:01.647Z,23.30
2018-11-28T07:43:10.166Z,23.67
2018-11-28T07:49:14.908Z,21.03
2018-11-28T07:55:19.695Z,20.90
2018-11-28T08:01:24.417Z,21.03
2018-11-28T08:07:29.657Z,19.37
2018-11-28T08:13:34.796Z,20.33
2018-11-28T08:19:40.162Z,20.23
2018-11-28T08:25:45.655Z,20.33
2018-11-28T08:31:49.932Z,20.23
2018-11-28T08:37:55.708Z,17.60
2018-11-28T08:44:00.785Z,21.57
2018-11-28T08:50:08.669Z,19.90
2018-11-28T08:56:13.526Z,21.10
2018-11-28T09:02:18.646Z,18.10
2018-11-28T09:08:23.557Z,19.97
2018-11-28T09:14:28.740Z,19.70
2018-11-28T09:20:34.270Z,19.00
2018-11-28T09:26:38.953Z,18.47
2018-11-28T09:32:44.137Z,20.30
2018-11-28T09:38:48.993Z,19.17
2018-11-28T09:44:54.499Z,17.40
2018-11-28T09:50:59.381Z,19.70
2018-11-28T09:57:04.092Z,18.77
2018-11-28T10:03:09.194Z,19.33
2018-11-28T10:09:14.634Z,18.03
2018-11-28T10:15:23.705Z,17.20
2018-11-28T10:21:28.436Z,18.87
2018-11-28T10:27:33.535Z,19.23
2018-11-28T10:33:38.253Z,18.20
2018-11-28T10:39:42.928Z,18.60
2018-11-28T10:45:47.657Z,21.30
2018-11-28T10:51:52.396Z,21.80
2018-11-28T10:57:57.980Z,20.17
2018-11-28T11:04:08.141Z,16.80
2018-11-28T11:10:18.678Z,17.50
2018-11-28T11:16:28.535Z,18.03
2018-11-28T11:22:33.691Z,17.20
2018-11-28T11:28:39.116Z,15.83
2018-11-28T11:34:43.844Z,15.53
2018-11-28T11:40:48.603Z,15.27
2018-11-28T11:46:54.078Z,15.07
2018-11-28T11:52:58.808Z,15.83
2018-11-28T11:59:03.902Z,15.80
2018-11-28T12:05:10.661Z,15.73
2018-11-28T12:11:15.939Z,14.40
2018-11-28T12:17:20.641Z,13.30
2018-11-28T12:23:25.408Z,14.63
2018-11-28T12:29:30.189Z,12.23
2018-11-28T12:35:35.491Z,13.20
2018-11-28T12:41:40.477Z,11.40
2018-11-28T12:47:46.710Z,12.20
2018-11-28T12:53:51.526Z,12.23
2018-11-28T12:59:56.222Z,12.40
2018-11-28T13:06:01.026Z,12.83
2018-11-28T13:12:06.399Z,13.73
2018-11-28T13:18:12.062Z,13.57
2018-11-28T13:24:16.786Z,13.27
2018-11-28T13:30:23.159Z,12.87
2018-11-28T13:36:27.881Z,14.67
2018-11-28T13:42:32.942Z,14.40
2018-11-28T13:48:37.603Z,15.50
2018-11-28T13:55:36.994Z,15.07
2018-11-28T14:00:47.048Z,14.30
2018-11-28T14:06:52.033Z,15.80
2018-11-28T14:12:56.773Z,15.37
2018-11-28T14:19:01.636Z,17.00
2018-11-28T14:25:07.878Z,15.37
2018-11-28T14:31:12.882Z,15.73
2018-11-28T14:37:17.618Z,15.90
2018-11-28T14:43:23.051Z,16.00
2018-11-28T14:49:27.829Z,16.10
2018-11-28T14:55:38.624Z,14.60
2018-11-28T15:01:43.643Z,15.33
2018-11-28T15:07:49.509Z,15.60
2018-11-28T15:13:54.246Z,15.40
2018-11-28T15:19:59.514Z,14.73
2018-11-28T15:26:04.866Z,16.30
2018-11-28T15:32:09.613Z,14.47
2018-11-28T15:38:14.889Z,15.87
2018-11-28T15:44:19.981Z,15.90
2018-11-28T15:50:24.503Z,16.93
2018-11-28T15:56:29.424Z,15.70
2018-11-28T16:02:34.234Z,18.10
2018-11-28T16:08:39.395Z,17.90
2018-11-28T16:14:44.396Z,17.90
2018-11-28T16:20:49.967Z,17.10
2018-11-28T16:26:54.744Z,17.23
2018-11-28T16:32:59.574Z,17.23
2018-11-28T16:39:08.362Z,17.17
2018-11-28T16:45:19.272Z,18.07
2018-11-28T16:51:24.003Z,18.10
2018-11-28T16:57:28.814Z,17.10
2018-11-28T17:03:33.961Z,16.83
2018-11-28T17:09:38.701Z,17.60
2018-11-28T17:15:43.679Z,18.27
2018-11-28T17:21:48.518Z,17.47
2018-11-28T17:27:53.386Z,17.83
2018-11-28T17:33:58.687Z,15.70
2018-11-28T17:40:03.968Z,17.20
2018-11-28T17:46:08.741Z,17.70
2018-11-28T17:52:13.833Z,17.83
2018-11-28T17:58:18.574Z,15.40
2018-11-28T18:04:23.306Z,17.37
2018-11-28T18:10:29.164Z,16.37
2018-11-28T18:16:33.931Z,15.03
2018-11-28T18:22:39.015Z,16.10
2018-11-28T18:28:44.608Z,16.83
2018-11-28T18:34:49.828Z,17.20
2018-11-28T18:40:54.571Z,17.77
2018-11-28T18:46:59.337Z,18.90
2018-11-28T18:53:04.141Z,24.20
2018-11-28T18:59:09.233Z,19.37
2018-11-28T19:05:14.048Z,15.97
2018-11-28T19:11:20.091Z,16.60
2018-11-28T19:17:24.867Z,20.47
2018-11-28T19:23:30.632Z,20.70
2018-11-28T19:29:35.560Z,20.93
2018-11-28T19:35:40.432Z,16.67
2018-11-28T19:41:45.281Z,18.37
2018-11-28T19:47:50.043Z,17.03
2018-11-28T19:53:54.859Z,18.70
2018-11-28T19:59:59.955Z,19.43
2018-11-28T20:06:04.779Z,19.17
2018-11-28T20:12:09.900Z,18.60
2018-11-28T20:18:14.704Z,19.67
2018-11-28T20:24:19.431Z,17.50
2018-11-28T20:30:34.087Z,16.83
2018-11-28T20:36:38.866Z,17.80
2018-11-28T20:42:46.118Z,17.97
2018-11-28T20:48:50.957Z,18.37
2018-11-28T20:54:55.654Z,19.17
2018-11-28T21:01:01.185Z,18.40
2018-11-28T21:07:05.977Z,17.57
2018-11-28T21:13:14.399Z,18.03
2018-11-28T21:19:20.172Z,15.60
2018-11-28T21:25:25.644Z,15.63
2018-11-28T21:31:30.405Z,16.33
2018-11-28T21:37:35.154Z,19.07
2018-11-28T21:43:41.007Z,16.73
2018-11-28T21:49:45.745Z,18.60
2018-11-28T21:55:50.450Z,16.53
2018-11-28T22:01:55.438Z,18.30
2018-11-28T22:08:00.177Z,17.17
2018-11-28T22:14:06.507Z,18.30
2018-11-28T22:20:15.494Z,18.20
2018-11-28T22:26:20.761Z,18.83
2018-11-28T22:32:25.498Z,22.60
2018-11-28T22:38:30.506Z,21.63
2018-11-28T22:44:35.692Z,27.57
2018-11-28T22:50:41.303Z,20.10
2018-11-28T22:56:46.057Z,18.33
2018-11-28T23:02:56.789Z,18.80
2018-11-28T23:09:01.603Z,18.67
2018-11-28T23:15:08.075Z,17.53
2018-11-28T23:21:13.092Z,18.60
2018-11-28T23:27:18.003Z,18.27
2018-11-28T23:33:23.253Z,17.73
2018-11-28T23:39:28.002Z,18.63
2018-11-28T23:45:33.250Z,15.77
2018-11-28T23:51:38.583Z,17.97
2018-11-28T23:57:43.441Z,15.30
